sensor_id;sensor_type;location;lat;lon;timestamp;pressure;altitude;pressure_sealevel;temperature;humidity
77778;BME280;66966;-34.746;138.604;2023-05-14T00:01:16;102616.79;;;18.83;26.93
77778;BME280;66966;-34.746;138.604;2023-05-14T00:03:42;102616.35;;;18.90;26.70
77778;BME280;66966;-34.746;138.604;2023-05-14T00:06:07;102609.43;;;18.86;26.43
77778;BME280;66966;-34.746;138.604;2023-05-14T00:08:33;102610.21;;;18.73;26.46
77778;BME280;66966;-34.746;138.604;2023-05-14T00:10:59;102604.80;;;18.89;26.42
77778;BME280;66966;-34.746;138.604;2023-05-14T00:13:24;102603.56;;;19.38;26.25
77778;BME280;66966;-34.746;138.604;2023-05-14T00:15:49;102605.09;;;19.44;25.94
77778;BME280;66966;-34.746;138.604;2023-05-14T00:18:15;102608.00;;;19.38;25.98
77778;BME280;66966;-34.746;138.604;2023-05-14T00:20:40;102606.62;;;19.74;25.92
77778;BME280;66966;-34.746;138.604;2023-05-14T00:23:06;102603.54;;;19.88;25.64
77778;BME280;66966;-34.746;138.604;2023-05-14T00:25:31;102599.57;;;19.59;25.68
77778;BME280;66966;-34.746;138.604;2023-05-14T00:27:56;102597.09;;;19.78;25.57
77778;BME280;66966;-34.746;138.604;2023-05-14T00:30:22;102594.68;;;20.13;25.37
77778;BME280;66966;-34.746;138.604;2023-05-14T00:32:47;102591.61;;;19.99;25.06
77778;BME280;66966;-34.746;138.604;2023-05-14T00:35:13;102585.73;;;20.08;25.03
77778;BME280;66966;-34.746;138.604;2023-05-14T00:37:39;102582.26;;;20.22;24.88
77778;BME280;66966;-34.746;138.604;2023-05-14T00:40:04;102581.86;;;20.31;24.82
77778;BME280;66966;-34.746;138.604;2023-05-14T00:42:29;102576.77;;;20.53;24.99
77778;BME280;66966;-34.746;138.604;2023-05-14T00:44:55;102579.48;;;20.54;24.81
77778;BME280;66966;-34.746;138.604;2023-05-14T00:47:20;102577.65;;;20.76;24.31
77778;BME280;66966;-34.746;138.604;2023-05-14T00:49:45;102571.21;;;20.58;24.27
77778;BME280;66966;-34.746;138.604;2023-05-14T00:52:11;102565.26;;;20.92;24.00
77778;BME280;66966;-34.746;138.604;2023-05-14T00:54:36;102563.88;;;20.73;24.24
77778;BME280;66966;-34.746;138.604;2023-05-14T00:57:02;102558.09;;;21.27;23.44
77778;BME280;66966;-34.746;138.604;2023-05-14T00:59:28;102557.53;;;20.86;23.74
77778;BME280;66966;-34.746;138.604;2023-05-14T01:01:53;102557.37;;;21.29;23.76
77778;BME280;66966;-34.746;138.604;2023-05-14T01:04:18;102554.37;;;21.17;23.76
77778;BME280;66966;-34.746;138.604;2023-05-14T01:06:49;102551.29;;;21.59;23.57
77778;BME280;66966;-34.746;138.604;2023-05-14T01:09:15;102551.72;;;21.52;23.23
77778;BME280;66966;-34.746;138.604;2023-05-14T01:11:40;102546.66;;;21.62;23.27
77778;BME280;66966;-34.746;138.604;2023-05-14T01:14:06;102543.70;;;21.74;23.23
77778;BME280;66966;-34.746;138.604;2023-05-14T01:16:26;102542.88;;;21.66;23.19
77778;BME280;66966;-34.746;138.604;2023-05-14T01:18:50;102538.85;;;21.72;22.59
77778;BME280;66966;-34.746;138.604;2023-05-14T01:21:26;102537.22;;;21.74;22.69
77778;BME280;66966;-34.746;138.604;2023-05-14T01:23:41;102532.48;;;21.51;22.80
77778;BME280;66966;-34.746;138.604;2023-05-14T01:26:06;102530.81;;;21.77;22.74
77778;BME280;66966;-34.746;138.604;2023-05-14T01:28:34;102524.81;;;21.97;22.56
77778;BME280;66966;-34.746;138.604;2023-05-14T01:30:59;102519.60;;;21.41;22.35
77778;BME280;66966;-34.746;138.604;2023-05-14T01:33:25;102514.41;;;21.67;22.70
77778;BME280;66966;-34.746;138.604;2023-05-14T01:35:48;102510.23;;;21.41;22.77
77778;BME280;66966;-34.746;138.604;2023-05-14T01:38:16;102505.79;;;21.88;22.96
77778;BME280;66966;-34.746;138.604;2023-05-14T01:40:39;102501.95;;;21.51;22.75
77778;BME280;66966;-34.746;138.604;2023-05-14T01:43:04;102495.78;;;21.52;23.01
77778;BME280;66966;-34.746;138.604;2023-05-14T01:45:30;102486.81;;;22.08;22.97
77778;BME280;66966;-34.746;138.604;2023-05-14T01:47:55;102485.81;;;21.77;22.79
77778;BME280;66966;-34.746;138.604;2023-05-14T01:50:25;102483.70;;;22.05;22.81
77778;BME280;66966;-34.746;138.604;2023-05-14T01:52:45;102473.27;;;22.23;22.77
77778;BME280;66966;-34.746;138.604;2023-05-14T01:55:11;102474.09;;;22.33;22.22
77778;BME280;66966;-34.746;138.604;2023-05-14T01:57:36;102471.77;;;22.47;21.36
77778;BME280;66966;-34.746;138.604;2023-05-14T02:00:02;102466.27;;;22.96;21.58
77778;BME280;66966;-34.746;138.604;2023-05-14T02:02:27;102462.13;;;22.97;21.76
77778;BME280;66966;-34.746;138.604;2023-05-14T02:04:52;102458.06;;;23.21;20.78
77778;BME280;66966;-34.746;138.604;2023-05-14T02:07:17;102454.85;;;23.48;20.76
77778;BME280;66966;-34.746;138.604;2023-05-14T02:09:43;102448.14;;;23.24;20.45
77778;BME280;66966;-34.746;138.604;2023-05-14T02:12:09;102445.91;;;23.60;20.29
77778;BME280;66966;-34.746;138.604;2023-05-14T02:14:33;102445.25;;;23.56;20.66
77778;BME280;66966;-34.746;138.604;2023-05-14T02:16:59;102445.96;;;23.82;20.15
77778;BME280;66966;-34.746;138.604;2023-05-14T02:19:24;102438.05;;;23.91;20.23
77778;BME280;66966;-34.746;138.604;2023-05-14T02:21:50;102437.76;;;23.97;19.72
77778;BME280;66966;-34.746;138.604;2023-05-14T02:24:15;102434.94;;;24.10;19.55
77778;BME280;66966;-34.746;138.604;2023-05-14T02:26:40;102430.21;;;23.81;19.75
77778;BME280;66966;-34.746;138.604;2023-05-14T02:29:05;102427.82;;;24.23;19.62
77778;BME280;66966;-34.746;138.604;2023-05-14T02:31:31;102420.26;;;24.05;19.13
77778;BME280;66966;-34.746;138.604;2023-05-14T02:33:56;102416.35;;;24.40;19.25
77778;BME280;66966;-34.746;138.604;2023-05-14T02:36:21;102409.92;;;24.28;18.97
77778;BME280;66966;-34.746;138.604;2023-05-14T02:38:46;102405.17;;;24.30;18.86
77778;BME280;66966;-34.746;138.604;2023-05-14T02:41:12;102400.03;;;24.40;18.90
77778;BME280;66966;-34.746;138.604;2023-05-14T02:43:37;102390.50;;;24.55;18.75
77778;BME280;66966;-34.746;138.604;2023-05-14T02:46:02;102385.69;;;24.63;19.01
77778;BME280;66966;-34.746;138.604;2023-05-14T02:48:28;102377.04;;;24.70;18.62
77778;BME280;66966;-34.746;138.604;2023-05-14T02:50:53;102370.24;;;24.67;18.73
77778;BME280;66966;-34.746;138.604;2023-05-14T02:53:18;102363.09;;;24.71;18.61
77778;BME280;66966;-34.746;138.604;2023-05-14T02:55:43;102367.53;;;24.79;18.23
77778;BME280;66966;-34.746;138.604;2023-05-14T02:58:09;102366.51;;;24.61;17.91
77778;BME280;66966;-34.746;138.604;2023-05-14T03:00:34;102360.25;;;25.02;17.25
77778;BME280;66966;-34.746;138.604;2023-05-14T03:02:59;102355.11;;;25.19;17.76
77778;BME280;66966;-34.746;138.604;2023-05-14T03:05:24;102346.61;;;25.28;17.22
77778;BME280;66966;-34.746;138.604;2023-05-14T03:07:51;102338.64;;;25.32;16.53
77778;BME280;66966;-34.746;138.604;2023-05-14T03:10:15;102333.62;;;25.41;17.27
77778;BME280;66966;-34.746;138.604;2023-05-14T03:12:41;102329.26;;;25.49;15.78
77778;BME280;66966;-34.746;138.604;2023-05-14T03:15:06;102327.69;;;25.33;16.82
77778;BME280;66966;-34.746;138.604;2023-05-14T03:17:31;102326.12;;;25.69;16.78
77778;BME280;66966;-34.746;138.604;2023-05-14T03:19:56;102318.11;;;25.26;17.18
77778;BME280;66966;-34.746;138.604;2023-05-14T03:22:21;102311.98;;;25.35;16.82
77778;BME280;66966;-34.746;138.604;2023-05-14T03:24:47;102308.05;;;25.42;16.64
77778;BME280;66966;-34.746;138.604;2023-05-14T03:27:12;102300.73;;;25.69;16.81
77778;BME280;66966;-34.746;138.604;2023-05-14T03:29:37;102299.21;;;25.93;16.98
77778;BME280;66966;-34.746;138.604;2023-05-14T03:32:02;102296.10;;;25.83;16.58
77778;BME280;66966;-34.746;138.604;2023-05-14T03:34:27;102292.10;;;25.91;16.40
77778;BME280;66966;-34.746;138.604;2023-05-14T03:36:53;102288.40;;;26.03;16.78
77778;BME280;66966;-34.746;138.604;2023-05-14T03:39:18;102286.06;;;26.21;16.45
77778;BME280;66966;-34.746;138.604;2023-05-14T03:41:43;102280.39;;;26.20;16.05
77778;BME280;66966;-34.746;138.604;2023-05-14T03:44:08;102276.17;;;25.98;14.66
77778;BME280;66966;-34.746;138.604;2023-05-14T03:46:34;102273.53;;;26.15;15.00
77778;BME280;66966;-34.746;138.604;2023-05-14T03:48:59;102270.94;;;25.97;14.50
77778;BME280;66966;-34.746;138.604;2023-05-14T03:51:24;102263.29;;;26.00;14.95
77778;BME280;66966;-34.746;138.604;2023-05-14T03:53:49;102258.52;;;26.00;15.37
77778;BME280;66966;-34.746;138.604;2023-05-14T03:56:14;102255.35;;;25.80;15.46
77778;BME280;66966;-34.746;138.604;2023-05-14T03:58:40;102251.83;;;26.10;16.03
77778;BME280;66966;-34.746;138.604;2023-05-14T04:01:05;102243.41;;;26.22;15.82
77778;BME280;66966;-34.746;138.604;2023-05-14T04:03:30;102239.27;;;26.35;15.22
77778;BME280;66966;-34.746;138.604;2023-05-14T04:05:55;102235.51;;;25.83;15.40
77778;BME280;66966;-34.746;138.604;2023-05-14T04:08:20;102235.53;;;25.77;14.19
77778;BME280;66966;-34.746;138.604;2023-05-14T04:10:46;102236.86;;;25.93;14.68
77778;BME280;66966;-34.746;138.604;2023-05-14T04:13:11;102234.03;;;25.82;14.22
77778;BME280;66966;-34.746;138.604;2023-05-14T04:15:36;102235.51;;;25.64;14.53
77778;BME280;66966;-34.746;138.604;2023-05-14T04:18:02;102230.79;;;25.71;14.05
77778;BME280;66966;-34.746;138.604;2023-05-14T04:20:27;102230.07;;;25.76;14.09
77778;BME280;66966;-34.746;138.604;2023-05-14T04:22:52;102233.78;;;25.44;14.54
77778;BME280;66966;-34.746;138.604;2023-05-14T04:25:17;102235.24;;;25.60;14.75
77778;BME280;66966;-34.746;138.604;2023-05-14T04:27:42;102234.69;;;25.64;14.69
77778;BME280;66966;-34.746;138.604;2023-05-14T04:30:09;102231.78;;;25.58;14.45
77778;BME280;66966;-34.746;138.604;2023-05-14T04:32:33;102230.71;;;25.58;14.50
77778;BME280;66966;-34.746;138.604;2023-05-14T04:34:58;102228.62;;;25.64;14.24
77778;BME280;66966;-34.746;138.604;2023-05-14T04:37:23;102225.47;;;25.47;14.45
77778;BME280;66966;-34.746;138.604;2023-05-14T04:39:48;102221.10;;;25.99;14.26
77778;BME280;66966;-34.746;138.604;2023-05-14T04:42:14;102222.29;;;25.93;14.30
77778;BME280;66966;-34.746;138.604;2023-05-14T04:44:39;102222.57;;;25.89;14.00
77778;BME280;66966;-34.746;138.604;2023-05-14T04:47:05;102218.60;;;25.88;14.13
77778;BME280;66966;-34.746;138.604;2023-05-14T04:49:30;102214.74;;;26.03;14.35
77778;BME280;66966;-34.746;138.604;2023-05-14T04:51:55;102217.31;;;26.05;14.17
77778;BME280;66966;-34.746;138.604;2023-05-14T04:54:20;102209.35;;;25.99;14.36
77778;BME280;66966;-34.746;138.604;2023-05-14T04:56:45;102208.05;;;26.09;14.33
77778;BME280;66966;-34.746;138.604;2023-05-14T04:59:11;102209.59;;;25.82;14.46
77778;BME280;66966;-34.746;138.604;2023-05-14T05:01:35;102213.52;;;25.73;14.52
77778;BME280;66966;-34.746;138.604;2023-05-14T05:04:01;102213.79;;;25.77;14.68
77778;BME280;66966;-34.746;138.604;2023-05-14T05:06:26;102212.96;;;25.76;14.66
77778;BME280;66966;-34.746;138.604;2023-05-14T05:08:51;102210.14;;;25.74;14.61
77778;BME280;66966;-34.746;138.604;2023-05-14T05:11:17;102204.48;;;25.81;14.84
77778;BME280;66966;-34.746;138.604;2023-05-14T05:13:42;102201.93;;;25.90;14.92
77778;BME280;66966;-34.746;138.604;2023-05-14T05:16:07;102202.56;;;26.16;15.07
77778;BME280;66966;-34.746;138.604;2023-05-14T05:18:32;102199.00;;;26.15;14.85
77778;BME280;66966;-34.746;138.604;2023-05-14T05:20:57;102197.41;;;26.31;14.64
77778;BME280;66966;-34.746;138.604;2023-05-14T05:23:23;102196.65;;;26.48;14.51
77778;BME280;66966;-34.746;138.604;2023-05-14T05:25:49;102198.31;;;26.67;14.14
77778;BME280;66966;-34.746;138.604;2023-05-14T05:28:13;102195.47;;;26.66;14.45
77778;BME280;66966;-34.746;138.604;2023-05-14T05:30:39;102191.82;;;26.28;14.49
77778;BME280;66966;-34.746;138.604;2023-05-14T05:33:04;102191.90;;;26.50;14.76
77778;BME280;66966;-34.746;138.604;2023-05-14T05:35:29;102191.07;;;26.53;14.71
77778;BME280;66966;-34.746;138.604;2023-05-14T05:37:54;102188.55;;;26.61;14.77
77778;BME280;66966;-34.746;138.604;2023-05-14T05:40:19;102188.48;;;26.55;15.05
77778;BME280;66966;-34.746;138.604;2023-05-14T05:42:45;102190.17;;;25.85;15.60
77778;BME280;66966;-34.746;138.604;2023-05-14T05:45:10;102192.22;;;26.15;15.83
77778;BME280;66966;-34.746;138.604;2023-05-14T05:47:36;102189.88;;;26.17;15.35
77778;BME280;66966;-34.746;138.604;2023-05-14T05:50:00;102190.51;;;25.73;15.31
77778;BME280;66966;-34.746;138.604;2023-05-14T05:52:26;102194.17;;;26.02;15.06
77778;BME280;66966;-34.746;138.604;2023-05-14T05:54:51;102197.61;;;26.05;15.05
77778;BME280;66966;-34.746;138.604;2023-05-14T05:57:16;102197.91;;;25.91;16.51
77778;BME280;66966;-34.746;138.604;2023-05-14T05:59:42;102202.04;;;25.19;18.37
77778;BME280;66966;-34.746;138.604;2023-05-14T06:02:06;102201.87;;;25.81;18.72
77778;BME280;66966;-34.746;138.604;2023-05-14T06:04:32;102201.82;;;25.51;19.90
77778;BME280;66966;-34.746;138.604;2023-05-14T06:06:57;102203.30;;;25.19;20.16
77778;BME280;66966;-34.746;138.604;2023-05-14T06:09:22;102206.22;;;25.20;20.43
77778;BME280;66966;-34.746;138.604;2023-05-14T06:11:48;102205.24;;;25.27;20.98
77778;BME280;66966;-34.746;138.604;2023-05-14T06:14:13;102207.55;;;25.08;20.71
77778;BME280;66966;-34.746;138.604;2023-05-14T06:16:38;102210.14;;;24.71;20.65
77778;BME280;66966;-34.746;138.604;2023-05-14T06:19:03;102208.91;;;24.68;21.18
77778;BME280;66966;-34.746;138.604;2023-05-14T06:21:29;102211.22;;;24.80;21.35
77778;BME280;66966;-34.746;138.604;2023-05-14T06:23:54;102213.51;;;24.47;20.55
77778;BME280;66966;-34.746;138.604;2023-05-14T06:26:19;102210.99;;;24.73;20.82
77778;BME280;66966;-34.746;138.604;2023-05-14T06:28:44;102212.22;;;24.82;21.10
77778;BME280;66966;-34.746;138.604;2023-05-14T06:31:09;102214.79;;;24.68;21.35
77778;BME280;66966;-34.746;138.604;2023-05-14T06:33:35;102215.00;;;24.77;21.19
77778;BME280;66966;-34.746;138.604;2023-05-14T06:36:02;102212.27;;;24.51;21.59
77778;BME280;66966;-34.746;138.604;2023-05-14T06:38:25;102208.73;;;24.65;21.11
77778;BME280;66966;-34.746;138.604;2023-05-14T06:40:51;102206.82;;;24.89;20.21
77778;BME280;66966;-34.746;138.604;2023-05-14T06:43:16;102206.64;;;24.96;19.97
77778;BME280;66966;-34.746;138.604;2023-05-14T06:45:41;102206.17;;;24.95;19.56
77778;BME280;66966;-34.746;138.604;2023-05-14T06:48:06;102204.89;;;24.69;19.21
77778;BME280;66966;-34.746;138.604;2023-05-14T06:50:32;102201.63;;;24.82;19.07
77778;BME280;66966;-34.746;138.604;2023-05-14T06:52:57;102203.70;;;24.78;19.87
77778;BME280;66966;-34.746;138.604;2023-05-14T06:55:22;102198.85;;;24.71;19.69
77778;BME280;66966;-34.746;138.604;2023-05-14T06:57:48;102199.96;;;24.42;20.07
77778;BME280;66966;-34.746;138.604;2023-05-14T07:00:14;102197.62;;;24.34;20.45
77778;BME280;66966;-34.746;138.604;2023-05-14T07:02:38;102200.38;;;24.46;20.69
77778;BME280;66966;-34.746;138.604;2023-05-14T07:05:03;102201.18;;;24.37;20.38
77778;BME280;66966;-34.746;138.604;2023-05-14T07:07:29;102201.44;;;24.32;20.25
77778;BME280;66966;-34.746;138.604;2023-05-14T07:09:54;102199.58;;;24.18;21.05
77778;BME280;66966;-34.746;138.604;2023-05-14T07:12:19;102199.71;;;24.04;20.90
77778;BME280;66966;-34.746;138.604;2023-05-14T07:14:44;102203.94;;;23.95;21.42
77778;BME280;66966;-34.746;138.604;2023-05-14T07:17:10;102202.73;;;23.86;21.49
77778;BME280;66966;-34.746;138.604;2023-05-14T07:19:35;102201.21;;;24.24;21.21
77778;BME280;66966;-34.746;138.604;2023-05-14T07:22:00;102199.24;;;23.66;21.02
77778;BME280;66966;-34.746;138.604;2023-05-14T07:24:26;102200.06;;;23.79;21.57
77778;BME280;66966;-34.746;138.604;2023-05-14T07:26:51;102198.71;;;23.67;21.42
77778;BME280;66966;-34.746;138.604;2023-05-14T07:29:16;102203.12;;;23.82;21.69
77778;BME280;66966;-34.746;138.604;2023-05-14T07:31:42;102202.98;;;23.49;21.88
77778;BME280;66966;-34.746;138.604;2023-05-14T07:34:07;102203.06;;;23.63;22.18
77778;BME280;66966;-34.746;138.604;2023-05-14T07:36:33;102203.18;;;23.50;22.62
77778;BME280;66966;-34.746;138.604;2023-05-14T07:38:57;102202.73;;;23.35;22.71
77778;BME280;66966;-34.746;138.604;2023-05-14T07:41:23;102206.12;;;23.45;23.01
77778;BME280;66966;-34.746;138.604;2023-05-14T07:43:48;102206.89;;;23.06;22.99
77778;BME280;66966;-34.746;138.604;2023-05-14T07:46:14;102208.12;;;22.93;22.90
77778;BME280;66966;-34.746;138.604;2023-05-14T07:48:39;102208.88;;;23.02;23.16
77778;BME280;66966;-34.746;138.604;2023-05-14T07:51:04;102211.73;;;22.84;23.12
77778;BME280;66966;-34.746;138.604;2023-05-14T07:53:29;102212.88;;;22.93;23.15
77778;BME280;66966;-34.746;138.604;2023-05-14T07:55:55;102212.26;;;22.47;23.47
77778;BME280;66966;-34.746;138.604;2023-05-14T07:58:20;102212.10;;;22.30;23.69
77778;BME280;66966;-34.746;138.604;2023-05-14T08:00:46;102220.33;;;22.40;23.75
77778;BME280;66966;-34.746;138.604;2023-05-14T08:03:11;102221.85;;;22.20;24.01
77778;BME280;66966;-34.746;138.604;2023-05-14T08:05:36;102223.29;;;22.03;24.13
77778;BME280;66966;-34.746;138.604;2023-05-14T08:08:02;102223.25;;;21.89;24.55
77778;BME280;66966;-34.746;138.604;2023-05-14T08:10:27;102226.61;;;22.18;24.81
77778;BME280;66966;-34.746;138.604;2023-05-14T08:12:53;102223.82;;;21.48;25.03
77778;BME280;66966;-34.746;138.604;2023-05-14T08:15:18;102218.50;;;21.79;25.14
77778;BME280;66966;-34.746;138.604;2023-05-14T08:17:43;102222.71;;;21.26;25.13
77778;BME280;66966;-34.746;138.604;2023-05-14T08:20:10;102226.19;;;21.63;25.42
77778;BME280;66966;-34.746;138.604;2023-05-14T08:22:34;102230.40;;;21.33;25.68
77778;BME280;66966;-34.746;138.604;2023-05-14T08:24:59;102232.32;;;21.68;25.81
77778;BME280;66966;-34.746;138.604;2023-05-14T08:27:26;102233.90;;;21.33;25.81
77778;BME280;66966;-34.746;138.604;2023-05-14T08:29:50;102233.98;;;20.95;25.84
77778;BME280;66966;-34.746;138.604;2023-05-14T08:32:16;102237.28;;;21.06;26.08
77778;BME280;66966;-34.746;138.604;2023-05-14T08:34:41;102238.97;;;20.89;26.29
77778;BME280;66966;-34.746;138.604;2023-05-14T08:37:07;102241.62;;;20.81;26.39
77778;BME280;66966;-34.746;138.604;2023-05-14T08:39:32;102241.92;;;20.98;26.49
77778;BME280;66966;-34.746;138.604;2023-05-14T08:41:58;102245.23;;;20.66;26.28
77778;BME280;66966;-34.746;138.604;2023-05-14T08:44:30;102246.71;;;20.82;26.69
77778;BME280;66966;-34.746;138.604;2023-05-14T08:46:50;102247.06;;;20.94;26.73
77778;BME280;66966;-34.746;138.604;2023-05-14T08:49:20;102249.36;;;20.40;26.95
77778;BME280;66966;-34.746;138.604;2023-05-14T08:51:39;102254.98;;;20.33;26.80
77778;BME280;66966;-34.746;138.604;2023-05-14T08:54:04;102257.45;;;20.43;26.77
77778;BME280;66966;-34.746;138.604;2023-05-14T08:56:32;102258.01;;;20.30;26.98
77778;BME280;66966;-34.746;138.604;2023-05-14T08:58:55;102260.56;;;20.38;26.78
77778;BME280;66966;-34.746;138.604;2023-05-14T09:01:20;102263.42;;;20.23;27.31
77778;BME280;66966;-34.746;138.604;2023-05-14T09:03:46;102263.71;;;19.85;27.43
77778;BME280;66966;-34.746;138.604;2023-05-14T09:06:11;102270.20;;;20.01;27.27
77778;BME280;66966;-34.746;138.604;2023-05-14T09:08:36;102270.81;;;19.93;27.18
77778;BME280;66966;-34.746;138.604;2023-05-14T09:11:01;102273.00;;;19.80;27.26
77778;BME280;66966;-34.746;138.604;2023-05-14T09:13:26;102272.01;;;19.74;27.24
77778;BME280;66966;-34.746;138.604;2023-05-14T09:15:53;102276.69;;;20.20;27.35
77778;BME280;66966;-34.746;138.604;2023-05-14T09:18:18;102277.75;;;19.71;27.21
77778;BME280;66966;-34.746;138.604;2023-05-14T09:20:43;102280.32;;;19.42;27.22
77778;BME280;66966;-34.746;138.604;2023-05-14T09:23:09;102281.52;;;19.83;27.34
77778;BME280;66966;-34.746;138.604;2023-05-14T09:25:42;102280.96;;;19.51;27.39
77778;BME280;66966;-34.746;138.604;2023-05-14T09:28:00;102283.68;;;19.43;27.17
77778;BME280;66966;-34.746;138.604;2023-05-14T09:30:26;102284.81;;;19.87;27.29
77778;BME280;66966;-34.746;138.604;2023-05-14T09:32:53;102288.49;;;19.86;27.23
77778;BME280;66966;-34.746;138.604;2023-05-14T09:35:18;102296.31;;;19.60;26.84
77778;BME280;66966;-34.746;138.604;2023-05-14T09:37:43;102301.16;;;19.56;26.98
77778;BME280;66966;-34.746;138.604;2023-05-14T09:40:08;102305.15;;;19.80;27.01
77778;BME280;66966;-34.746;138.604;2023-05-14T09:42:33;102312.17;;;19.29;26.90
77778;BME280;66966;-34.746;138.604;2023-05-14T09:44:58;102311.42;;;19.66;27.04
77778;BME280;66966;-34.746;138.604;2023-05-14T09:47:23;102314.69;;;19.28;27.68
77778;BME280;66966;-34.746;138.604;2023-05-14T09:49:49;102315.83;;;19.41;27.67
77778;BME280;66966;-34.746;138.604;2023-05-14T09:52:14;102320.34;;;19.32;27.59
77778;BME280;66966;-34.746;138.604;2023-05-14T09:54:40;102324.08;;;18.95;28.07
77778;BME280;66966;-34.746;138.604;2023-05-14T09:57:04;102319.98;;;19.06;28.29
77778;BME280;66966;-34.746;138.604;2023-05-14T09:59:30;102328.21;;;19.13;28.36
77778;BME280;66966;-34.746;138.604;2023-05-14T10:01:55;102326.59;;;19.03;28.42
77778;BME280;66966;-34.746;138.604;2023-05-14T10:04:22;102325.42;;;18.69;28.68
77778;BME280;66966;-34.746;138.604;2023-05-14T10:06:48;102324.63;;;18.78;28.91
77778;BME280;66966;-34.746;138.604;2023-05-14T10:09:13;102324.94;;;18.70;28.84
77778;BME280;66966;-34.746;138.604;2023-05-14T10:11:39;102327.41;;;18.37;28.98
77778;BME280;66966;-34.746;138.604;2023-05-14T10:14:05;102328.63;;;18.30;29.19
77778;BME280;66966;-34.746;138.604;2023-05-14T10:16:29;102332.67;;;18.47;29.30
77778;BME280;66966;-34.746;138.604;2023-05-14T10:18:58;102335.19;;;18.40;28.87
77778;BME280;66966;-34.746;138.604;2023-05-14T10:21:20;102336.79;;;18.20;29.08
77778;BME280;66966;-34.746;138.604;2023-05-14T10:23:44;102334.59;;;18.20;29.38
77778;BME280;66966;-34.746;138.604;2023-05-14T10:26:09;102337.43;;;18.01;29.52
77778;BME280;66966;-34.746;138.604;2023-05-14T10:28:34;102336.91;;;17.81;29.76
77778;BME280;66966;-34.746;138.604;2023-05-14T10:31:00;102343.29;;;17.92;30.00
77778;BME280;66966;-34.746;138.604;2023-05-14T10:33:24;102346.29;;;17.81;30.43
77778;BME280;66966;-34.746;138.604;2023-05-14T10:35:59;102349.94;;;17.54;30.34
77778;BME280;66966;-34.746;138.604;2023-05-14T10:38:16;102352.27;;;17.69;30.24
77778;BME280;66966;-34.746;138.604;2023-05-14T10:40:41;102354.48;;;17.58;30.56
77778;BME280;66966;-34.746;138.604;2023-05-14T10:43:06;102357.12;;;17.47;30.67
77778;BME280;66966;-34.746;138.604;2023-05-14T10:45:31;102357.29;;;17.41;30.67
77778;BME280;66966;-34.746;138.604;2023-05-14T10:47:57;102355.73;;;17.33;30.96
77778;BME280;66966;-34.746;138.604;2023-05-14T10:50:22;102357.89;;;17.29;31.19
77778;BME280;66966;-34.746;138.604;2023-05-14T10:52:49;102360.01;;;17.24;31.06
77778;BME280;66966;-34.746;138.604;2023-05-14T10:55:15;102359.70;;;17.14;31.17
77778;BME280;66966;-34.746;138.604;2023-05-14T10:57:41;102359.73;;;17.04;31.26
77778;BME280;66966;-34.746;138.604;2023-05-14T11:00:06;102362.29;;;16.96;31.52
77778;BME280;66966;-34.746;138.604;2023-05-14T11:02:31;102363.59;;;17.33;31.59
77778;BME280;66966;-34.746;138.604;2023-05-14T11:04:58;102363.56;;;17.24;31.69
77778;BME280;66966;-34.746;138.604;2023-05-14T11:07:26;102364.20;;;16.89;31.77
77778;BME280;66966;-34.746;138.604;2023-05-14T11:09:48;102363.31;;;16.80;31.88
77778;BME280;66966;-34.746;138.604;2023-05-14T11:12:12;102365.39;;;16.75;32.00
77778;BME280;66966;-34.746;138.604;2023-05-14T11:14:37;102362.86;;;16.95;31.99
77778;BME280;66966;-34.746;138.604;2023-05-14T11:17:02;102365.47;;;16.68;31.94
77778;BME280;66966;-34.746;138.604;2023-05-14T11:19:28;102370.63;;;16.93;31.94
77778;BME280;66966;-34.746;138.604;2023-05-14T11:21:54;102371.93;;;16.86;31.91
77778;BME280;66966;-34.746;138.604;2023-05-14T11:24:19;102370.88;;;16.85;32.05
77778;BME280;66966;-34.746;138.604;2023-05-14T11:26:45;102372.09;;;16.75;32.11
77778;BME280;66966;-34.746;138.604;2023-05-14T11:29:10;102372.81;;;16.68;32.19
77778;BME280;66966;-34.746;138.604;2023-05-14T11:31:35;102374.19;;;16.63;32.16
77778;BME280;66966;-34.746;138.604;2023-05-14T11:34:01;102377.80;;;16.57;32.24
77778;BME280;66966;-34.746;138.604;2023-05-14T11:36:26;102380.09;;;16.49;32.32
77778;BME280;66966;-34.746;138.604;2023-05-14T11:38:51;102381.99;;;16.39;32.46
77778;BME280;66966;-34.746;138.604;2023-05-14T11:41:17;102381.57;;;16.53;32.57
77778;BME280;66966;-34.746;138.604;2023-05-14T11:43:43;102382.42;;;16.46;32.61
77778;BME280;66966;-34.746;138.604;2023-05-14T11:46:08;102385.11;;;16.36;32.77
77778;BME280;66966;-34.746;138.604;2023-05-14T11:48:33;102385.99;;;16.06;32.64
77778;BME280;66966;-34.746;138.604;2023-05-14T11:50:59;102388.44;;;16.50;32.79
77778;BME280;66966;-34.746;138.604;2023-05-14T11:53:26;102391.94;;;16.45;32.86
77778;BME280;66966;-34.746;138.604;2023-05-14T11:55:50;102395.41;;;15.89;32.87
77778;BME280;66966;-34.746;138.604;2023-05-14T11:58:18;102399.62;;;15.88;33.02
77778;BME280;66966;-34.746;138.604;2023-05-14T12:00:44;102400.77;;;15.98;33.01
77778;BME280;66966;-34.746;138.604;2023-05-14T12:03:09;102401.55;;;15.72;33.00
77778;BME280;66966;-34.746;138.604;2023-05-14T12:05:33;102406.36;;;15.72;33.06
77778;BME280;66966;-34.746;138.604;2023-05-14T12:07:58;102406.48;;;16.09;33.09
77778;BME280;66966;-34.746;138.604;2023-05-14T12:10:24;102409.07;;;15.80;33.20